createdAt,value
2019-03-26T00:01:44.232Z,6.90
2019-03-26T00:04:12.186Z,6.83
2019-03-26T00:06:40.004Z,6.50
2019-03-26T00:09:09.062Z,7.23
2019-03-26T00:11:37.272Z,6.40
2019-03-26T00:14:04.924Z,6.33
2019-03-26T00:16:32.744Z,5.20
2019-03-26T00:19:00.520Z,5.30
2019-03-26T00:21:28.259Z,6.10
2019-03-26T00:23:56.022Z,4.23
2019-03-26T00:26:23.804Z,6.60
2019-03-26T00:28:51.584Z,4.13
2019-03-26T00:31:19.222Z,4.20
2019-03-26T00:33:46.923Z,5.23
2019-03-26T00:36:14.591Z,4.83
2019-03-26T00:38:42.357Z,6.73
2019-03-26T00:41:10.146Z,5.20
2019-03-26T00:43:38.528Z,7.43
2019-03-26T00:46:06.229Z,4.10
2019-03-26T00:48:33.995Z,4.20
2019-03-26T00:51:01.668Z,4.00
2019-03-26T00:53:29.361Z,5.80
2019-03-26T00:55:57.128Z,5.20
2019-03-26T00:58:24.808Z,4.40
2019-03-26T01:00:52.482Z,5.53
2019-03-26T01:03:20.299Z,3.27
2019-03-26T01:05:48.159Z,5.17
2019-03-26T01:08:15.872Z,3.10
2019-03-26T01:10:43.683Z,2.97
2019-03-26T01:13:11.470Z,5.23
2019-03-26T01:15:39.220Z,5.33
2019-03-26T01:18:06.996Z,5.03
2019-03-26T01:20:34.867Z,5.57
2019-03-26T01:23:02.869Z,6.70
2019-03-26T01:25:30.636Z,4.03
2019-03-26T01:27:58.399Z,7.03
2019-03-26T01:30:26.219Z,6.60
2019-03-26T01:32:53.848Z,4.73
2019-03-26T01:35:21.647Z,4.73
2019-03-26T01:37:49.379Z,6.07
2019-03-26T01:40:17.175Z,5.67
2019-03-26T01:42:44.895Z,5.23
2019-03-26T01:45:12.736Z,5.80
2019-03-26T01:47:40.525Z,5.40
2019-03-26T01:50:10.104Z,4.50
2019-03-26T01:52:37.896Z,5.53
2019-03-26T01:55:05.765Z,5.70
2019-03-26T01:57:33.540Z,5.97
2019-03-26T02:00:01.357Z,5.70
2019-03-26T02:02:29.091Z,5.40
2019-03-26T02:05:00.268Z,6.40
2019-03-26T02:07:26.438Z,6.50
2019-03-26T02:09:54.177Z,6.13
2019-03-26T02:12:21.915Z,7.33
2019-03-26T02:14:49.675Z,8.23
2019-03-26T02:17:17.349Z,7.33
2019-03-26T02:19:45.024Z,6.03
2019-03-26T02:22:13.108Z,8.30
2019-03-26T02:24:40.811Z,7.80
2019-03-26T02:27:08.457Z,8.07
2019-03-26T02:29:36.595Z,7.80
2019-03-26T02:32:04.399Z,8.93
2019-03-26T02:34:32.081Z,8.90
2019-03-26T02:36:59.832Z,8.27
2019-03-26T02:39:27.617Z,9.13
2019-03-26T02:41:55.391Z,7.80
2019-03-26T02:44:23.152Z,8.50
2019-03-26T02:46:50.929Z,7.93
2019-03-26T02:49:18.714Z,7.30
2019-03-26T02:51:46.861Z,8.40
2019-03-26T02:54:14.607Z,7.80
2019-03-26T02:56:42.379Z,7.40
2019-03-26T02:59:10.033Z,7.90
2019-03-26T03:01:37.788Z,7.97
2019-03-26T03:04:05.442Z,7.50
2019-03-26T03:06:33.093Z,7.53
2019-03-26T03:09:00.911Z,8.17
2019-03-26T03:11:28.546Z,9.43
2019-03-26T03:13:56.206Z,8.53
2019-03-26T03:16:23.972Z,9.00
2019-03-26T03:18:51.754Z,8.60
2019-03-26T03:21:19.448Z,9.10
2019-03-26T03:23:47.452Z,9.77
2019-03-26T03:26:15.253Z,9.87
2019-03-26T03:28:43.013Z,8.93
2019-03-26T03:31:10.823Z,8.57
2019-03-26T03:33:38.517Z,9.57
2019-03-26T03:36:06.292Z,7.97
2019-03-26T03:38:34.033Z,8.50
2019-03-26T03:41:01.900Z,8.50
2019-03-26T03:43:29.585Z,9.43
2019-03-26T03:45:57.383Z,9.23
2019-03-26T03:48:25.254Z,9.67
2019-03-26T03:50:53.860Z,10.43
2019-03-26T03:53:22.605Z,10.53
2019-03-26T03:55:52.455Z,11.17
2019-03-26T03:58:23.075Z,9.37
2019-03-26T04:00:50.760Z,10.03
2019-03-26T04:03:18.420Z,9.23
2019-03-26T04:05:46.206Z,8.60
2019-03-26T04:08:14.085Z,8.93
2019-03-26T04:10:41.847Z,10.37
2019-03-26T04:13:09.642Z,9.50
2019-03-26T04:15:37.531Z,8.57
2019-03-26T04:18:05.406Z,8.67
2019-03-26T04:20:33.141Z,9.63
2019-03-26T04:23:01.334Z,9.60
2019-03-26T04:25:29.089Z,8.40
2019-03-26T04:27:57.098Z,8.90
2019-03-26T04:30:29.157Z,9.03
2019-03-26T04:32:56.932Z,8.80
2019-03-26T04:35:24.745Z,9.10
2019-03-26T04:37:52.516Z,8.40
2019-03-26T04:40:20.220Z,10.13
2019-03-26T04:42:47.852Z,9.57
2019-03-26T04:45:15.672Z,10.00
2019-03-26T04:47:43.759Z,10.27
2019-03-26T04:50:11.531Z,10.37
2019-03-26T04:52:39.540Z,10.77
2019-03-26T04:55:07.404Z,12.37
2019-03-26T04:57:35.605Z,10.63
2019-03-26T05:00:04.027Z,11.30
2019-03-26T05:02:31.802Z,9.43
2019-03-26T05:04:59.508Z,10.50
2019-03-26T05:07:27.224Z,10.53
2019-03-26T05:09:54.892Z,10.60
2019-03-26T05:12:22.823Z,9.77
2019-03-26T05:14:50.832Z,10.70
2019-03-26T05:17:18.484Z,10.20
2019-03-26T05:19:46.183Z,12.90
2019-03-26T05:22:23.563Z,10.43
2019-03-26T05:24:43.371Z,10.60
2019-03-26T05:27:11.172Z,10.10
2019-03-26T05:29:38.809Z,9.43
2019-03-26T05:32:06.632Z,10.60
2019-03-26T05:34:34.410Z,9.50
2019-03-26T05:37:02.228Z,9.30
2019-03-26T05:39:30.001Z,11.20
2019-03-26T05:41:57.786Z,10.13
2019-03-26T05:44:25.816Z,10.80
2019-03-26T05:46:55.140Z,10.90
2019-03-26T05:49:22.949Z,11.07
2019-03-26T05:51:50.704Z,10.50
2019-03-26T05:54:18.368Z,11.60
2019-03-26T05:56:46.165Z,9.47
2019-03-26T05:59:13.882Z,10.77
2019-03-26T06:01:41.655Z,11.77
2019-03-26T06:04:09.329Z,11.50
2019-03-26T06:06:37.127Z,10.93
2019-03-26T06:09:05.392Z,10.20
2019-03-26T06:11:33.132Z,10.80
2019-03-26T06:14:01.605Z,11.37
2019-03-26T06:16:38.352Z,10.97
2019-03-26T06:18:58.743Z,11.73
2019-03-26T06:21:26.551Z,10.77
2019-03-26T06:23:54.290Z,12.30
2019-03-26T06:26:22.077Z,9.97
2019-03-26T06:28:49.848Z,11.70
2019-03-26T06:31:17.781Z,12.40
2019-03-26T06:33:45.500Z,11.87
2019-03-26T06:36:13.261Z,12.30
2019-03-26T06:38:41.063Z,11.77
2019-03-26T06:41:09.050Z,13.43
2019-03-26T06:43:36.748Z,17.07
2019-03-26T06:46:04.420Z,17.10
2019-03-26T06:48:32.280Z,13.40
2019-03-26T06:51:00.060Z,13.33
2019-03-26T06:53:27.831Z,13.23
2019-03-26T06:55:55.602Z,17.63
2019-03-26T06:58:23.380Z,15.30
2019-03-26T07:00:51.145Z,14.03
2019-03-26T07:03:18.898Z,17.23
2019-03-26T07:05:46.604Z,12.50
2019-03-26T07:08:14.378Z,17.23
2019-03-26T07:10:42.136Z,16.67
2019-03-26T07:13:10.124Z,16.53
2019-03-26T07:15:37.796Z,17.00
2019-03-26T07:18:05.596Z,13.90
2019-03-26T07:20:33.368Z,15.67
2019-03-26T07:23:01.164Z,14.90
2019-03-26T07:25:28.906Z,16.40
2019-03-26T07:27:56.714Z,15.43
2019-03-26T07:30:38.435Z,16.77
2019-03-26T07:33:06.273Z,11.80
2019-03-26T07:35:34.008Z,15.83
2019-03-26T07:38:01.821Z,15.63
2019-03-26T07:40:29.484Z,16.30
2019-03-26T07:42:57.399Z,17.20
2019-03-26T07:45:25.059Z,15.27
2019-03-26T07:47:52.823Z,14.47
2019-03-26T07:50:20.574Z,19.57
2019-03-26T07:52:48.341Z,18.03
2019-03-26T07:55:16.109Z,15.90
2019-03-26T07:57:43.839Z,16.53
2019-03-26T08:00:12.378Z,19.47
2019-03-26T08:02:40.026Z,16.93
2019-03-26T08:05:08.070Z,15.60
2019-03-26T08:07:35.827Z,17.40
2019-03-26T08:10:03.816Z,14.80
2019-03-26T08:12:32.847Z,15.00
2019-03-26T08:15:00.631Z,15.57
2019-03-26T08:17:28.312Z,15.73
2019-03-26T08:19:56.084Z,18.53
2019-03-26T08:22:23.726Z,18.63
2019-03-26T08:24:51.390Z,16.53
2019-03-26T08:27:19.098Z,18.70
2019-03-26T08:29:46.831Z,19.53
2019-03-26T08:32:14.988Z,16.17
2019-03-26T08:34:42.747Z,16.63
2019-03-26T08:37:11.144Z,15.23
2019-03-26T08:39:38.947Z,14.53
2019-03-26T08:42:06.744Z,12.10
2019-03-26T08:44:34.386Z,14.10
2019-03-26T08:47:02.043Z,11.93
2019-03-26T08:49:30.851Z,14.80
2019-03-26T08:51:58.832Z,10.30
2019-03-26T08:54:26.520Z,13.63
2019-03-26T08:56:54.270Z,12.60
2019-03-26T08:59:21.935Z,11.67
2019-03-26T09:01:49.603Z,13.80
2019-03-26T09:04:17.252Z,12.03
2019-03-26T09:06:45.003Z,11.63
2019-03-26T09:09:12.812Z,13.10
2019-03-26T09:11:40.492Z,14.50
2019-03-26T09:14:08.295Z,10.37
2019-03-26T09:16:36.066Z,11.47
2019-03-26T09:19:03.807Z,9.57
2019-03-26T09:21:32.767Z,9.27
2019-03-26T09:24:00.759Z,9.33
2019-03-26T09:26:28.525Z,9.10
2019-03-26T09:28:56.303Z,8.90
2019-03-26T09:31:23.871Z,7.17
2019-03-26T09:33:51.652Z,7.60
2019-03-26T09:36:19.456Z,8.43
2019-03-26T09:38:47.347Z,10.20
2019-03-26T09:41:15.590Z,7.47
2019-03-26T09:43:43.259Z,7.97
2019-03-26T09:46:10.951Z,5.30
2019-03-26T09:48:38.760Z,8.07
2019-03-26T09:51:06.520Z,8.13
2019-03-26T09:53:34.319Z,7.53
2019-03-26T09:56:02.091Z,8.07
2019-03-26T09:58:29.888Z,9.63
2019-03-26T10:00:57.627Z,8.47
2019-03-26T10:03:25.462Z,7.30
2019-03-26T10:05:53.388Z,6.77
2019-03-26T10:08:21.118Z,5.17
2019-03-26T10:10:48.944Z,5.23
2019-03-26T10:13:16.712Z,5.60
2019-03-26T10:15:44.432Z,6.50
2019-03-26T10:18:12.172Z,6.87
2019-03-26T10:20:39.867Z,6.67
2019-03-26T10:23:07.753Z,5.27
2019-03-26T10:25:35.637Z,6.10
2019-03-26T10:28:03.796Z,5.40
2019-03-26T10:30:33.432Z,3.87
2019-03-26T10:33:01.287Z,4.17
2019-03-26T10:35:29.075Z,2.60
2019-03-26T10:37:56.839Z,1.20
2019-03-26T10:40:31.307Z,2.07
2019-03-26T10:42:59.167Z,1.80
2019-03-26T10:45:26.944Z,2.10
2019-03-26T10:47:54.625Z,2.10
2019-03-26T10:50:22.400Z,2.03
2019-03-26T10:52:50.084Z,1.70
2019-03-26T10:55:17.850Z,2.03
2019-03-26T10:57:45.606Z,2.93
2019-03-26T11:00:14.186Z,2.00
2019-03-26T11:02:41.858Z,2.90
2019-03-26T11:05:10.135Z,1.90
2019-03-26T11:07:38.679Z,1.80
2019-03-26T11:10:06.521Z,1.87
2019-03-26T11:12:34.310Z,2.10
2019-03-26T11:15:01.997Z,2.13
2019-03-26T11:17:29.749Z,1.67
2019-03-26T11:19:57.552Z,1.30
2019-03-26T11:22:25.299Z,2.50
2019-03-26T11:24:53.115Z,1.77
2019-03-26T11:27:21.214Z,3.00
2019-03-26T11:29:48.955Z,2.70
2019-03-26T11:32:16.719Z,2.50
2019-03-26T11:34:44.467Z,2.20
2019-03-26T11:37:12.364Z,1.60
2019-03-26T11:39:40.129Z,2.40
2019-03-26T11:42:08.233Z,2.60
2019-03-26T11:44:35.964Z,2.00
2019-03-26T11:47:03.775Z,2.13
2019-03-26T11:49:31.676Z,2.00
2019-03-26T11:51:59.532Z,2.43
2019-03-26T11:54:27.159Z,2.00
2019-03-26T11:56:54.940Z,2.80
2019-03-26T11:59:22.732Z,2.63
2019-03-26T12:01:52.463Z,3.77
2019-03-26T12:04:19.941Z,2.50
2019-03-26T12:06:47.683Z,2.93
2019-03-26T12:09:15.512Z,2.20
2019-03-26T12:11:43.288Z,2.90
2019-03-26T12:14:11.085Z,1.80
2019-03-26T12:16:39.107Z,2.47
2019-03-26T12:19:06.859Z,2.90
2019-03-26T12:21:34.655Z,3.23
2019-03-26T12:24:02.523Z,2.67
2019-03-26T12:26:30.195Z,3.70
2019-03-26T12:28:57.980Z,3.47
2019-03-26T12:31:25.739Z,5.20
2019-03-26T12:33:53.532Z,4.20
2019-03-26T12:36:21.272Z,4.30
2019-03-26T12:38:49.054Z,4.63
2019-03-26T12:41:16.973Z,4.80
2019-03-26T12:43:44.792Z,6.03
2019-03-26T12:46:12.796Z,4.43
2019-03-26T12:48:40.793Z,3.20
2019-03-26T12:51:08.453Z,2.60
2019-03-26T12:53:36.532Z,3.00
2019-03-26T12:56:04.386Z,4.17
2019-03-26T12:58:36.292Z,2.70
2019-03-26T13:01:01.632Z,3.57
2019-03-26T13:03:29.331Z,3.27
2019-03-26T13:05:56.982Z,2.80
2019-03-26T13:08:25.032Z,3.50
2019-03-26T13:10:54.190Z,5.30
2019-03-26T13:13:22.031Z,3.00
2019-03-26T13:15:49.824Z,3.33
2019-03-26T13:18:17.567Z,3.30
2019-03-26T13:20:45.267Z,2.93
2019-03-26T13:23:13.069Z,3.40
2019-03-26T13:25:40.858Z,2.53
2019-03-26T13:28:08.528Z,3.03
2019-03-26T13:30:36.146Z,2.57
2019-03-26T13:33:04.106Z,2.57
2019-03-26T13:35:31.843Z,2.80
2019-03-26T13:37:59.641Z,3.40
2019-03-26T13:40:27.940Z,2.93
2019-03-26T13:42:55.904Z,2.50
2019-03-26T13:45:23.773Z,2.10
2019-03-26T13:47:51.583Z,2.43
2019-03-26T13:50:20.602Z,3.07
2019-03-26T13:52:48.489Z,2.80
2019-03-26T13:55:16.264Z,2.40
2019-03-26T13:57:44.173Z,2.20
2019-03-26T14:00:13.693Z,2.43
2019-03-26T14:02:41.339Z,3.50
2019-03-26T14:05:23.173Z,1.87
2019-03-26T14:07:50.987Z,2.63
2019-03-26T14:10:18.809Z,3.50
2019-03-26T14:12:46.708Z,3.13
2019-03-26T14:15:14.732Z,2.83
2019-03-26T14:17:42.795Z,3.17
2019-03-26T14:20:10.688Z,4.00
2019-03-26T14:22:38.720Z,2.70
2019-03-26T14:25:06.697Z,2.90
2019-03-26T14:27:34.368Z,2.23
2019-03-26T14:30:02.184Z,2.37
2019-03-26T14:32:30.392Z,3.00
2019-03-26T14:34:58.152Z,2.10
2019-03-26T14:37:26.452Z,3.43
2019-03-26T14:39:54.668Z,2.90
2019-03-26T14:42:22.364Z,2.13
2019-03-26T14:44:50.279Z,2.27
2019-03-26T14:47:18.102Z,2.03
2019-03-26T14:49:45.913Z,1.60
2019-03-26T14:52:13.675Z,2.30
2019-03-26T14:54:42.440Z,2.27
2019-03-26T14:57:10.214Z,2.27
2019-03-26T14:59:37.967Z,2.10
2019-03-26T15:02:05.864Z,2.73
2019-03-26T15:04:33.631Z,4.00
2019-03-26T15:07:01.402Z,3.13
2019-03-26T15:09:29.186Z,1.87
2019-03-26T15:11:56.986Z,2.13
2019-03-26T15:14:24.956Z,2.50
2019-03-26T15:16:52.740Z,2.70
2019-03-26T15:19:20.523Z,2.63
2019-03-26T15:21:48.716Z,2.20
2019-03-26T15:24:16.518Z,2.50
2019-03-26T15:26:44.186Z,3.17
2019-03-26T15:29:11.968Z,2.20
2019-03-26T15:31:39.717Z,2.90
2019-03-26T15:34:07.520Z,2.07
2019-03-26T15:36:35.250Z,2.17
2019-03-26T15:39:05.299Z,2.33
2019-03-26T15:41:33.084Z,2.80
2019-03-26T15:44:01.147Z,2.80
2019-03-26T15:46:28.926Z,2.73
2019-03-26T15:48:56.692Z,2.80
2019-03-26T15:51:24.355Z,2.53
2019-03-26T15:53:52.156Z,3.87
2019-03-26T15:56:19.919Z,13.50
2019-03-26T15:58:47.724Z,9.13
2019-03-26T16:01:15.448Z,2.47
2019-03-26T16:03:43.480Z,3.87
2019-03-26T16:06:11.255Z,7.97
2019-03-26T16:08:39.057Z,4.33
2019-03-26T16:11:06.872Z,4.10
2019-03-26T16:13:35.835Z,4.80
2019-03-26T16:16:03.807Z,5.33
2019-03-26T16:18:31.624Z,3.93
2019-03-26T16:20:59.408Z,3.93
2019-03-26T16:23:27.083Z,2.30
2019-03-26T16:25:54.851Z,2.50
2019-03-26T16:28:22.728Z,3.53
2019-03-26T16:30:50.503Z,3.77
2019-03-26T16:33:18.445Z,4.00
2019-03-26T16:35:50.544Z,3.13
2019-03-26T16:38:18.236Z,2.87
2019-03-26T16:40:46.028Z,3.20
2019-03-26T16:43:13.733Z,4.87
2019-03-26T16:45:41.630Z,3.87
2019-03-26T16:48:09.397Z,6.30
2019-03-26T16:50:37.183Z,3.53
2019-03-26T16:53:04.928Z,5.30
2019-03-26T16:55:32.644Z,4.47
2019-03-26T16:58:00.408Z,3.83
2019-03-26T17:00:32.504Z,4.10
2019-03-26T17:03:00.415Z,4.33
2019-03-26T17:05:28.447Z,4.10
2019-03-26T17:07:56.230Z,2.90
2019-03-26T17:10:23.997Z,3.93
2019-03-26T17:12:51.984Z,3.67
2019-03-26T17:15:19.755Z,3.83
2019-03-26T17:17:47.526Z,3.00
2019-03-26T17:20:15.572Z,2.57
2019-03-26T17:22:43.498Z,3.40
2019-03-26T17:25:11.259Z,2.73
2019-03-26T17:27:39.096Z,3.53
2019-03-26T17:30:07.129Z,4.30
2019-03-26T17:32:34.936Z,3.73
2019-03-26T17:35:02.706Z,4.87
2019-03-26T17:37:30.360Z,5.20
2019-03-26T17:39:58.064Z,5.03
2019-03-26T17:42:25.807Z,4.40
2019-03-26T17:44:53.515Z,4.03
2019-03-26T17:47:21.300Z,3.77
2019-03-26T17:49:50.076Z,3.83
2019-03-26T17:52:17.852Z,3.63
2019-03-26T17:54:45.627Z,4.00
2019-03-26T17:57:13.308Z,4.20
2019-03-26T17:59:41.132Z,4.13
2019-03-26T18:02:08.903Z,3.30
2019-03-26T18:04:36.688Z,5.50
2019-03-26T18:07:05.623Z,4.10
2019-03-26T18:09:33.406Z,3.87
2019-03-26T18:12:01.216Z,5.33
2019-03-26T18:14:28.976Z,3.80
2019-03-26T18:16:56.751Z,10.03
2019-03-26T18:19:24.429Z,5.33
2019-03-26T18:21:52.231Z,3.67
2019-03-26T18:24:20.276Z,3.87
2019-03-26T18:26:48.791Z,4.20
2019-03-26T18:29:16.835Z,4.93
2019-03-26T18:31:45.866Z,4.60
2019-03-26T18:34:13.592Z,5.07
2019-03-26T18:36:41.724Z,4.50
2019-03-26T18:39:09.522Z,3.90
2019-03-26T18:41:37.320Z,6.70
2019-03-26T18:44:05.123Z,4.10
2019-03-26T18:46:34.338Z,5.53
2019-03-26T18:49:03.416Z,5.50
2019-03-26T18:51:31.459Z,4.90
2019-03-26T18:53:59.250Z,4.80
2019-03-26T18:56:27.027Z,6.80
2019-03-26T18:58:56.007Z,6.67
2019-03-26T19:01:23.903Z,6.50
2019-03-26T19:03:51.671Z,5.87
2019-03-26T19:06:20.244Z,6.30
2019-03-26T19:08:48.883Z,5.97
2019-03-26T19:11:17.028Z,5.30
2019-03-26T19:13:44.861Z,6.30
2019-03-26T19:16:12.696Z,6.90
2019-03-26T19:18:40.995Z,5.60
2019-03-26T19:21:08.915Z,8.97
2019-03-26T19:23:37.950Z,32.67
2019-03-26T19:26:05.678Z,14.37
2019-03-26T19:28:33.572Z,17.47
2019-03-26T19:31:01.964Z,11.20
2019-03-26T19:33:30.035Z,11.13
2019-03-26T19:35:58.796Z,11.23
2019-03-26T19:38:29.027Z,6.70
2019-03-26T19:40:56.987Z,7.07
2019-03-26T19:43:25.239Z,7.37
2019-03-26T19:45:53.021Z,7.13
2019-03-26T19:48:21.228Z,9.47
2019-03-26T19:50:49.179Z,7.37
2019-03-26T19:53:17.138Z,7.37
2019-03-26T19:55:46.814Z,4.30
2019-03-26T19:58:14.544Z,7.43
2019-03-26T20:00:42.335Z,8.83
2019-03-26T20:03:11.071Z,6.43
2019-03-26T20:05:38.711Z,5.70
2019-03-26T20:08:06.465Z,6.00
2019-03-26T20:10:34.280Z,5.47
2019-03-26T20:13:02.628Z,6.10
2019-03-26T20:15:30.444Z,5.80
2019-03-26T20:17:58.307Z,7.30
2019-03-26T20:20:26.904Z,6.17
2019-03-26T20:22:54.689Z,4.63
2019-03-26T20:25:22.641Z,5.77
2019-03-26T20:27:50.464Z,5.87
2019-03-26T20:30:19.532Z,7.03
2019-03-26T20:32:47.360Z,6.80
2019-03-26T20:35:18.413Z,5.70
2019-03-26T20:37:46.214Z,7.03
2019-03-26T20:40:14.833Z,6.60
2019-03-26T20:42:42.591Z,5.73
2019-03-26T20:45:14.147Z,5.70
2019-03-26T20:47:40.880Z,7.97
2019-03-26T20:50:12.129Z,6.93
2019-03-26T20:52:40.089Z,6.10
2019-03-26T20:55:11.655Z,4.63
2019-03-26T20:57:39.705Z,5.70
2019-03-26T21:00:09.963Z,4.97
2019-03-26T21:02:38.020Z,5.17
2019-03-26T21:05:07.424Z,4.63
2019-03-26T21:07:35.216Z,5.30
2019-03-26T21:10:03.199Z,4.80
2019-03-26T21:12:30.847Z,3.40
2019-03-26T21:14:59.692Z,4.30
2019-03-26T21:17:28.838Z,4.33
2019-03-26T21:19:57.455Z,5.67
2019-03-26T21:22:25.257Z,5.83
2019-03-26T21:24:53.035Z,5.00
2019-03-26T21:27:20.817Z,4.60
2019-03-26T21:29:48.611Z,4.17
2019-03-26T21:32:16.656Z,5.53
2019-03-26T21:34:44.552Z,5.20
2019-03-26T21:37:12.268Z,5.13
2019-03-26T21:39:40.110Z,6.00
2019-03-26T21:42:07.877Z,5.70
2019-03-26T21:44:35.654Z,5.43
2019-03-26T21:47:03.772Z,5.70
2019-03-26T21:49:31.336Z,5.23
2019-03-26T21:51:59.089Z,5.47
2019-03-26T21:54:26.847Z,4.90
2019-03-26T21:56:54.601Z,4.03
2019-03-26T21:59:22.372Z,5.43
2019-03-26T22:01:50.184Z,5.23
2019-03-26T22:04:17.957Z,4.63
2019-03-26T22:06:45.695Z,5.57
2019-03-26T22:09:13.492Z,5.63
2019-03-26T22:11:49.692Z,6.20
2019-03-26T22:14:17.898Z,5.90
2019-03-26T22:16:40.264Z,5.30
2019-03-26T22:19:08.061Z,5.40
2019-03-26T22:21:36.119Z,5.70
2019-03-26T22:24:03.816Z,3.80
2019-03-26T22:26:31.471Z,4.90
2019-03-26T22:28:59.271Z,2.67
2019-03-26T22:31:27.013Z,3.73
2019-03-26T22:33:54.697Z,4.67
2019-03-26T22:36:22.500Z,4.70
2019-03-26T22:38:50.548Z,4.30
2019-03-26T22:41:18.212Z,5.20
2019-03-26T22:43:45.984Z,5.03
2019-03-26T22:46:13.799Z,4.27
2019-03-26T22:48:41.689Z,3.70
2019-03-26T22:51:09.495Z,4.17
2019-03-26T22:53:37.196Z,4.93
2019-03-26T22:56:04.980Z,1.87
2019-03-26T22:58:32.648Z,3.63
2019-03-26T23:01:00.551Z,1.90
2019-03-26T23:03:28.421Z,2.30
2019-03-26T23:05:56.183Z,2.23
2019-03-26T23:08:24.162Z,2.23
2019-03-26T23:10:51.902Z,2.70
2019-03-26T23:13:19.600Z,2.03
2019-03-26T23:15:47.653Z,2.90
2019-03-26T23:18:15.415Z,5.53
2019-03-26T23:20:43.193Z,4.90
2019-03-26T23:23:11.027Z,4.03
2019-03-26T23:25:38.800Z,5.20
2019-03-26T23:28:06.576Z,2.83
2019-03-26T23:30:34.368Z,2.30
2019-03-26T23:33:02.184Z,2.60
2019-03-26T23:35:30.010Z,3.10
2019-03-26T23:37:57.746Z,2.23
2019-03-26T23:40:25.410Z,2.70
2019-03-26T23:42:53.288Z,1.90
2019-03-26T23:45:20.971Z,3.53
2019-03-26T23:47:48.764Z,9.67
2019-03-26T23:50:16.516Z,9.30
2019-03-26T23:52:44.582Z,5.43
2019-03-26T23:55:12.442Z,9.77
2019-03-26T23:57:40.251Z,3.50
